createdAt,value
2023-04-08T00:00:58.242Z,101985.53
2023-04-08T00:04:00.918Z,101992.81
2023-04-08T00:07:03.619Z,101998.44
2023-04-08T00:10:07.626Z,101995.09
2023-04-08T00:13:10.378Z,101991.56
2023-04-08T00:16:14.534Z,101989.53
2023-04-08T00:19:17.175Z,101985.75
2023-04-08T00:22:20.018Z,101992.59
2023-04-08T00:25:24.797Z,101988.09
2023-04-08T00:28:28.063Z,101990.56
2023-04-08T00:31:32.051Z,101981.63
2023-04-08T00:34:34.643Z,101977.13
2023-04-08T00:37:37.256Z,101981.34
2023-04-08T00:40:39.875Z,101981.38
2023-04-08T00:43:42.474Z,101984.94
2023-04-08T00:46:47.383Z,101987.75
2023-04-08T00:49:50.448Z,101988.47
2023-04-08T00:52:53.085Z,101986.06
2023-04-08T00:55:55.705Z,101978.72
2023-04-08T00:58:58.680Z,101988.50
2023-04-08T01:02:13.592Z,101989.03
2023-04-08T01:05:22.779Z,101991.69
2023-04-08T01:08:29.755Z,101996.28
2023-04-08T01:11:35.698Z,101993.09
2023-04-08T01:14:43.933Z,101985.78
2023-04-08T01:17:49.178Z,101988.34
2023-04-08T01:20:53.148Z,101985.63
2023-04-08T01:24:02.289Z,101989.00
2023-04-08T01:27:07.895Z,101987.66
2023-04-08T01:30:11.645Z,101987.47
2023-04-08T01:33:16.315Z,101981.50
2023-04-08T01:36:21.151Z,101979.56
2023-04-08T01:39:25.059Z,101980.41
2023-04-08T01:42:30.762Z,101988.38
2023-04-08T01:45:33.342Z,101980.72
2023-04-08T01:48:37.122Z,101973.63
2023-04-08T01:51:40.474Z,101967.19
2023-04-08T01:54:43.115Z,101972.47
2023-04-08T01:57:50.841Z,101961.09
2023-04-08T02:00:55.830Z,101966.28
2023-04-08T02:04:00.411Z,101954.22
2023-04-08T02:07:03.716Z,101955.03
2023-04-08T02:10:07.500Z,101948.97
2023-04-08T02:13:11.467Z,101950.66
2023-04-08T02:16:19.584Z,101950.38
2023-04-08T02:19:31.557Z,101955.16
2023-04-08T02:22:41.824Z,101965.56
2023-04-08T02:25:46.337Z,101964.06
2023-04-08T02:28:51.074Z,101964.75
2023-04-08T02:31:54.954Z,101970.97
2023-04-08T02:34:58.905Z,101969.38
2023-04-08T02:38:01.617Z,101973.22
2023-04-08T02:41:04.393Z,101972.22
2023-04-08T02:44:08.334Z,101970.22
2023-04-08T02:47:10.957Z,101966.53
2023-04-08T02:50:13.553Z,101973.56
2023-04-08T02:53:16.168Z,101970.16
2023-04-08T02:56:18.744Z,101976.22
2023-04-08T02:59:22.722Z,101979.81
2023-04-08T03:02:25.446Z,101978.91
2023-04-08T03:05:28.206Z,101982.25
2023-04-08T03:08:30.794Z,101981.06
2023-04-08T03:11:33.415Z,101988.88
2023-04-08T03:14:37.358Z,101986.16
2023-04-08T03:17:40.042Z,101993.31
2023-04-08T03:20:42.649Z,101997.69
2023-04-08T03:23:45.635Z,101997.72
2023-04-08T03:26:48.283Z,101998.31
2023-04-08T03:29:53.010Z,102006.59
2023-04-08T03:32:56.075Z,101998.59
2023-04-08T03:35:58.817Z,102003.94
2023-04-08T03:39:03.654Z,102000.66
2023-04-08T03:42:06.248Z,102013.78
2023-04-08T03:45:10.754Z,102013.00
2023-04-08T03:48:13.347Z,102013.81
2023-04-08T03:51:16.009Z,102004.25
2023-04-08T03:54:18.687Z,102009.56
2023-04-08T03:57:21.280Z,102011.34
2023-04-08T04:00:25.457Z,102009.72
2023-04-08T04:03:28.189Z,102022.00
2023-04-08T04:06:31.107Z,102021.81
2023-04-08T04:09:33.702Z,102024.66
2023-04-08T04:12:36.307Z,102026.97
2023-04-08T04:15:41.206Z,102023.31
2023-04-08T04:18:43.913Z,102023.31
2023-04-08T04:21:46.535Z,102026.69
2023-04-08T04:24:49.506Z,102035.78
2023-04-08T04:27:52.076Z,102041.19
2023-04-08T04:30:56.728Z,102039.28
2023-04-08T04:34:00.756Z,102047.06
2023-04-08T04:37:03.503Z,102053.16
2023-04-08T04:40:07.563Z,102053.66
2023-04-08T04:43:10.299Z,102052.75
2023-04-08T04:46:14.293Z,102053.56
2023-04-08T04:49:16.906Z,102051.53
2023-04-08T04:52:19.546Z,102050.84
2023-04-08T04:55:23.349Z,102058.63
2023-04-08T04:58:26.067Z,102059.50
2023-04-08T05:01:30.056Z,102061.38
2023-04-08T05:04:32.708Z,102064.75
2023-04-08T05:07:36.932Z,102056.66
2023-04-08T05:10:42.305Z,102062.09
2023-04-08T05:13:44.966Z,102061.34
2023-04-08T05:16:48.898Z,102070.06
2023-04-08T05:19:51.965Z,102072.09
2023-04-08T05:22:54.547Z,102078.44
2023-04-08T05:25:57.178Z,102083.59
2023-04-08T05:28:59.866Z,102083.47
2023-04-08T05:32:03.835Z,102082.56
2023-04-08T05:35:07.286Z,102086.13
2023-04-08T05:38:09.922Z,102094.84
2023-04-08T05:41:12.769Z,102092.91
2023-04-08T05:44:15.494Z,102098.34
2023-04-08T05:47:19.417Z,102100.81
2023-04-08T05:50:22.012Z,102098.28
2023-04-08T05:53:24.960Z,102100.00
2023-04-08T05:56:27.564Z,102105.47
2023-04-08T05:59:30.239Z,102100.16
2023-04-08T06:02:34.261Z,102106.34
2023-04-08T06:05:36.953Z,102108.72
2023-04-08T06:08:39.528Z,102120.34
2023-04-08T06:11:42.108Z,102126.56
2023-04-08T06:14:44.764Z,102122.00
2023-04-08T06:17:48.715Z,102119.41
2023-04-08T06:20:51.545Z,102141.47
2023-04-08T06:23:54.187Z,102130.97
2023-04-08T06:26:57.168Z,102130.72
2023-04-08T06:29:59.784Z,102136.25
2023-04-08T06:33:03.785Z,102133.38
2023-04-08T06:36:07.959Z,102128.25
2023-04-08T06:39:10.619Z,102126.50
2023-04-08T06:42:13.221Z,102127.31
2023-04-08T06:45:15.820Z,102132.53
2023-04-08T06:48:19.766Z,102145.81
2023-04-08T06:51:22.386Z,102143.75
2023-04-08T06:54:24.998Z,102149.19
2023-04-08T06:57:27.599Z,102159.56
2023-04-08T07:00:30.513Z,102152.69
2023-04-08T07:03:34.617Z,102156.31
2023-04-08T07:06:37.280Z,102161.47
2023-04-08T07:09:41.358Z,102163.41
2023-04-08T07:12:43.967Z,102162.47
2023-04-08T07:15:46.755Z,102161.38
2023-04-08T07:18:51.913Z,102163.13
2023-04-08T07:21:54.820Z,102164.22
2023-04-08T07:24:57.392Z,102166.78
2023-04-08T07:27:59.962Z,102168.56
2023-04-08T07:31:13.971Z,102164.91
2023-04-08T07:34:17.958Z,102170.97
2023-04-08T07:37:20.704Z,102178.06
2023-04-08T07:40:23.274Z,102189.72
2023-04-08T07:43:25.877Z,102190.66
2023-04-08T07:46:28.467Z,102197.53
2023-04-08T07:49:32.459Z,102202.63
2023-04-08T07:52:35.129Z,102199.19
2023-04-08T07:55:39.239Z,102207.13
2023-04-08T07:58:42.207Z,102211.44
2023-04-08T08:01:44.908Z,102215.63
2023-04-08T08:04:48.948Z,102208.91
2023-04-08T08:07:51.568Z,102212.53
2023-04-08T08:10:54.144Z,102218.78
2023-04-08T08:13:56.885Z,102219.56
2023-04-08T08:16:59.596Z,102222.84
2023-04-08T08:20:04.871Z,102218.56
2023-04-08T08:23:07.450Z,102214.16
2023-04-08T08:26:11.134Z,102218.44
2023-04-08T08:29:13.783Z,102224.47
2023-04-08T08:32:16.426Z,102223.69
2023-04-08T08:35:20.402Z,102223.69
2023-04-08T08:38:23.018Z,102230.59
2023-04-08T08:41:25.652Z,102230.59
2023-04-08T08:44:28.404Z,102234.19
2023-04-08T08:47:31.982Z,102230.56
2023-04-08T08:50:36.324Z,102238.59
2023-04-08T08:53:39.188Z,102234.06
2023-04-08T08:56:43.373Z,102233.88
2023-04-08T08:59:47.289Z,102238.41
2023-04-08T09:02:50.111Z,102241.94
2023-04-08T09:05:56.570Z,102243.69
2023-04-08T09:08:59.165Z,102254.50
2023-04-08T09:12:04.891Z,102260.28
2023-04-08T09:15:09.370Z,102261.97
2023-04-08T09:18:22.825Z,102261.88
2023-04-08T09:21:27.382Z,102267.13
2023-04-08T09:24:31.908Z,102267.38
2023-04-08T09:27:35.919Z,102265.84
2023-04-08T09:30:38.751Z,102269.53
2023-04-08T09:33:41.367Z,102264.09
2023-04-08T09:36:45.714Z,102270.13
2023-04-08T09:39:48.784Z,102282.53
2023-04-08T09:42:56.184Z,102279.06
2023-04-08T09:46:02.527Z,102276.41
2023-04-08T09:49:08.252Z,102278.13
2023-04-08T09:52:17.938Z,102287.59
2023-04-08T09:55:23.584Z,102272.63
2023-04-08T09:58:29.693Z,102281.59
2023-04-08T10:01:39.152Z,102283.53
2023-04-08T10:04:45.354Z,102278.91
2023-04-08T10:07:51.354Z,102279.53
2023-04-08T10:10:56.254Z,102287.38
2023-04-08T10:13:58.918Z,102286.50
2023-04-08T10:17:27.427Z,102291.94
2023-04-08T10:20:45.842Z,102293.56
2023-04-08T10:23:59.289Z,102291.63
2023-04-08T10:27:04.257Z,102284.16
2023-04-08T10:30:40.116Z,102291.84
2023-04-08T10:33:42.718Z,102296.38
2023-04-08T10:36:45.335Z,102286.97
2023-04-08T10:39:52.933Z,102283.41
2023-04-08T10:42:55.920Z,102281.66
2023-04-08T10:45:58.513Z,102285.19
2023-04-08T10:49:01.844Z,102287.63
2023-04-08T10:52:08.358Z,102288.56
2023-04-08T10:55:12.854Z,102286.78
2023-04-08T10:58:15.540Z,102284.78
2023-04-08T11:01:18.421Z,102284.84
2023-04-08T11:04:23.570Z,102285.72
2023-04-08T11:07:27.060Z,102285.69
2023-04-08T11:10:31.841Z,102288.47
2023-04-08T11:13:34.517Z,102287.47
2023-04-08T11:16:39.088Z,102295.63
2023-04-08T11:19:41.904Z,102292.56
2023-04-08T11:22:45.900Z,102290.31
2023-04-08T11:25:50.072Z,102287.53
2023-04-08T11:28:53.350Z,102286.56
2023-04-08T11:31:56.229Z,102291.88
2023-04-08T11:35:01.190Z,102296.97
2023-04-08T11:38:06.108Z,102287.59
2023-04-08T11:41:11.511Z,102279.22
2023-04-08T11:44:14.218Z,102283.56
2023-04-08T11:47:16.888Z,102281.94
2023-04-08T11:50:25.860Z,102288.06
2023-04-08T11:53:28.567Z,102287.03
2023-04-08T11:56:33.615Z,102285.44
2023-04-08T11:59:36.256Z,102287.44
2023-04-08T12:02:38.968Z,102298.09
2023-04-08T12:05:42.489Z,102296.25
2023-04-08T12:08:45.150Z,102298.31
2023-04-08T12:11:49.288Z,102300.97
2023-04-08T12:14:51.891Z,102302.16
2023-04-08T12:17:54.489Z,102313.06
2023-04-08T12:20:57.338Z,102312.03
2023-04-08T12:23:59.920Z,102308.00
2023-04-08T12:27:04.973Z,102306.50
2023-04-08T12:30:08.815Z,102305.63
2023-04-08T12:33:11.409Z,102312.63
2023-04-08T12:36:14.075Z,102309.56
2023-04-08T12:39:16.720Z,102315.72
2023-04-08T12:42:20.784Z,102304.34
2023-04-08T12:45:23.421Z,102307.63
2023-04-08T12:48:26.398Z,102305.84
2023-04-08T12:51:29.416Z,102309.94
2023-04-08T12:54:32.711Z,102313.19
2023-04-08T12:57:36.676Z,102315.44
2023-04-08T13:00:40.147Z,102311.78
2023-04-08T13:03:44.965Z,102318.47
2023-04-08T13:06:49.231Z,102320.06
2023-04-08T13:35:20.787Z,102312.53
2023-04-08T13:38:23.400Z,102315.25
2023-04-08T13:41:28.006Z,102314.94
2023-04-08T13:44:30.645Z,102311.31
2023-04-08T13:47:34.240Z,102313.91
2023-04-08T13:50:40.314Z,102313.00
2023-04-08T13:53:42.893Z,102308.47
2023-04-08T13:56:45.732Z,102307.56
2023-04-08T13:59:48.324Z,102305.22
2023-04-08T14:02:51.481Z,102302.56
2023-04-08T14:05:55.560Z,102299.53
2023-04-08T14:08:58.130Z,102294.22
2023-04-08T14:12:00.754Z,102294.06
2023-04-08T14:15:03.737Z,102302.09
2023-04-08T14:18:08.636Z,102300.09
2023-04-08T14:21:15.652Z,102311.06
2023-04-08T14:24:18.367Z,102304.72
2023-04-08T14:27:21.163Z,102301.84
2023-04-08T14:30:23.855Z,102303.91
2023-04-08T14:33:27.127Z,102299.38
2023-04-08T14:36:31.391Z,102305.69
2023-04-08T14:39:34.027Z,102301.25
2023-04-08T14:42:36.629Z,102301.19
2023-04-08T14:45:39.207Z,102305.69
2023-04-08T14:48:41.816Z,102305.19
2023-04-08T14:51:45.750Z,102307.88
2023-04-08T14:54:48.322Z,102310.03
2023-04-08T14:57:50.937Z,102314.31
2023-04-08T15:00:53.601Z,102313.03
2023-04-08T15:03:56.259Z,102306.91
2023-04-08T15:07:00.408Z,102307.31
2023-04-08T15:10:03.152Z,102313.22
2023-04-08T15:13:05.821Z,102314.03
2023-04-08T15:16:08.555Z,102313.44
2023-04-08T15:19:11.609Z,102324.13
2023-04-08T15:22:15.598Z,102318.78
2023-04-08T15:25:18.346Z,102308.00
2023-04-08T15:28:21.138Z,102315.16
2023-04-08T15:31:23.788Z,102313.47
2023-04-08T15:34:27.057Z,102321.59
2023-04-08T15:37:30.982Z,102322.50
2023-04-08T15:40:34.466Z,102329.31
2023-04-08T15:43:37.080Z,102332.66
2023-04-08T15:46:39.758Z,102333.84
2023-04-08T15:49:42.524Z,102338.03
2023-04-08T15:52:46.535Z,102338.22
2023-04-08T15:55:50.162Z,102342.50
2023-04-08T15:58:53.264Z,102337.09
2023-04-08T16:01:56.072Z,102341.69
2023-04-08T16:04:58.710Z,102339.00
2023-04-08T16:08:02.665Z,102335.38
2023-04-08T16:11:06.975Z,102343.41
2023-04-08T16:14:09.591Z,102338.09
2023-04-08T16:17:12.156Z,102346.00
2023-04-08T16:20:14.937Z,102331.28
2023-04-08T16:23:18.899Z,102335.63
2023-04-08T16:26:22.256Z,102337.94
2023-04-08T16:29:25.124Z,102331.78
2023-04-08T16:32:27.861Z,102338.13
2023-04-08T16:35:30.458Z,102353.03
2023-04-08T16:38:35.434Z,102344.03
2023-04-08T16:41:39.317Z,102340.13
2023-04-08T16:44:41.987Z,102347.66
2023-04-08T16:47:45.932Z,102346.97
2023-04-08T16:50:48.724Z,102342.44
2023-04-08T16:53:53.159Z,102338.97
2023-04-08T16:56:56.940Z,102347.34
2023-04-08T16:59:59.531Z,102347.31
2023-04-08T17:03:02.340Z,102351.41
2023-04-08T17:06:08.901Z,102353.22
2023-04-08T17:09:13.012Z,102355.75
2023-04-08T17:12:15.831Z,102361.09
2023-04-08T17:15:18.512Z,102358.78
2023-04-08T17:18:21.080Z,102357.97
2023-04-08T17:21:23.714Z,102350.66
2023-04-08T17:24:27.689Z,102353.34
2023-04-08T17:27:30.317Z,102358.53
2023-04-08T17:30:32.930Z,102350.56
2023-04-08T17:33:35.536Z,102357.47
2023-04-08T17:36:38.112Z,102357.38
2023-04-08T17:39:42.062Z,102360.09
2023-04-08T17:42:44.685Z,102363.75
2023-04-08T17:45:49.959Z,102365.38
2023-04-08T17:48:55.350Z,102360.06
2023-04-08T17:51:57.923Z,102368.91
2023-04-08T17:55:02.439Z,102368.03
2023-04-08T17:58:05.298Z,102353.03
2023-04-08T18:01:07.948Z,102359.16
2023-04-08T18:04:12.224Z,102361.94
2023-04-08T18:07:15.289Z,102362.72
2023-04-08T18:10:19.429Z,102364.44
2023-04-08T18:13:22.045Z,102372.41
2023-04-08T18:16:24.656Z,102369.78
2023-04-08T18:19:27.276Z,102370.69
2023-04-08T18:22:29.838Z,102378.00
2023-04-08T18:25:34.420Z,102377.16
2023-04-08T18:28:37.094Z,102386.81
2023-04-08T18:31:39.702Z,102385.19
2023-04-08T18:34:42.309Z,102391.97
2023-04-08T18:37:44.899Z,102393.75
2023-04-08T18:40:48.839Z,102406.13
2023-04-08T18:43:51.867Z,102401.75
2023-04-08T18:46:54.687Z,102399.16
2023-04-08T18:49:57.592Z,102407.94
2023-04-08T18:53:00.212Z,102407.84
2023-04-08T18:56:04.704Z,102414.91
2023-04-08T18:59:07.382Z,102413.25
2023-04-08T19:02:10.095Z,102412.31
2023-04-08T19:05:12.792Z,102409.75
2023-04-08T19:08:15.413Z,102408.03
2023-04-08T19:11:19.500Z,102407.94
2023-04-08T19:14:22.080Z,102412.41
2023-04-08T19:17:24.688Z,102411.63
2023-04-08T19:20:28.440Z,102413.38
2023-04-08T19:23:32.035Z,102411.56
2023-04-08T19:26:36.316Z,102413.31
2023-04-08T19:29:38.893Z,102413.50
2023-04-08T19:32:43.025Z,102404.69
2023-04-08T19:35:45.723Z,102404.56
2023-04-08T19:38:48.298Z,102403.66
2023-04-08T19:41:52.328Z,102409.88
2023-04-08T19:44:55.229Z,102407.25
2023-04-08T19:47:58.007Z,102410.97
2023-04-08T19:51:00.831Z,102400.31
2023-04-08T19:54:03.439Z,102403.69
2023-04-08T19:57:11.548Z,102402.78
2023-04-08T20:00:14.465Z,102409.03
2023-04-08T20:03:17.475Z,102414.56
2023-04-08T20:06:20.914Z,102418.81
2023-04-08T20:09:23.578Z,102414.38
2023-04-08T20:12:27.546Z,102414.34
2023-04-08T20:15:30.236Z,102412.53
2023-04-08T20:18:33.297Z,102416.94
2023-04-08T20:21:35.894Z,102416.97
2023-04-08T20:24:38.454Z,102418.00
2023-04-08T20:27:42.887Z,102416.13
2023-04-08T20:30:45.638Z,102420.53
2023-04-08T20:33:48.223Z,102429.47
2023-04-08T20:36:50.915Z,102426.75
2023-04-08T20:39:54.008Z,102434.66
2023-04-08T20:42:57.999Z,102431.25
2023-04-08T20:46:00.989Z,102430.31
2023-04-08T20:49:04.148Z,102427.56
2023-04-08T20:52:06.968Z,102424.03
2023-04-08T20:55:10.429Z,102434.72
2023-04-08T20:58:14.365Z,102438.28
2023-04-08T21:01:17.006Z,102436.56
2023-04-08T21:04:19.606Z,102436.53
2023-04-08T21:07:22.161Z,102435.72
2023-04-08T21:10:24.931Z,102433.81
2023-04-08T21:13:28.849Z,102434.66
2023-04-08T21:16:31.462Z,102429.47
2023-04-08T21:19:34.107Z,102433.13
2023-04-08T21:22:36.672Z,102435.03
2023-04-08T21:25:39.331Z,102428.75
2023-04-08T21:28:43.930Z,102437.50
2023-04-08T21:31:46.703Z,102433.94
2023-04-08T21:34:49.344Z,102432.97
2023-04-08T21:37:52.022Z,102425.97
2023-04-08T21:40:54.588Z,102432.09
2023-04-08T21:43:59.187Z,102432.97
2023-04-08T21:47:02.165Z,102433.91
2023-04-08T21:50:05.547Z,102431.28
2023-04-08T21:53:08.372Z,102427.72
2023-04-08T21:56:11.218Z,102425.97
2023-04-08T21:59:15.219Z,102426.03
2023-04-08T22:02:17.869Z,102432.19
2023-04-08T22:05:20.584Z,102428.69
2023-04-08T22:08:23.194Z,102438.34
2023-04-08T22:11:25.848Z,102431.25
2023-04-08T22:14:29.886Z,102433.03
2023-04-08T22:17:32.734Z,102433.16
2023-04-08T22:20:36.456Z,102429.50
2023-04-08T22:23:39.079Z,102422.47
2023-04-08T22:26:41.709Z,102429.53
2023-04-08T22:29:45.833Z,102427.72
2023-04-08T22:32:48.464Z,102424.22
2023-04-08T22:35:51.299Z,102433.91
2023-04-08T22:38:54.162Z,102431.25
2023-04-08T22:41:57.418Z,102431.25
2023-04-08T22:45:01.824Z,102425.06
2023-04-08T22:48:04.813Z,102429.50
2023-04-08T22:51:07.419Z,102427.78
2023-04-08T22:54:10.231Z,102432.16
2023-04-08T22:57:12.801Z,102433.00
2023-04-08T23:00:16.945Z,102440.97
2023-04-08T23:03:19.566Z,102435.72
2023-04-08T23:06:22.200Z,102439.19
2023-04-08T23:09:26.623Z,102442.75
2023-04-08T23:12:29.202Z,102446.28
2023-04-08T23:15:33.176Z,102446.28
2023-04-08T23:18:35.854Z,102445.41
2023-04-08T23:21:38.460Z,102443.66
2023-04-08T23:24:41.044Z,102440.13
2023-04-08T23:27:43.634Z,102441.00
2023-04-08T23:30:47.727Z,102437.47
2023-04-08T23:33:50.910Z,102433.91
2023-04-08T23:36:53.507Z,102428.69
2023-04-08T23:39:56.352Z,102425.19
2023-04-08T23:42:59.066Z,102433.13
2023-04-08T23:46:03.214Z,102433.16
2023-04-08T23:49:05.890Z,102435.78
2023-04-08T23:52:08.475Z,102430.47
2023-04-08T23:55:11.460Z,102428.72
2023-04-08T23:58:14.257Z,102428.72
